SBOSBO TLS / LFBO
Speedbird OnlineSpeedbird Online TLS / LFBO

Toulouse-Blagnac Airport
21:28 14°C

Location Toulouse, France
Latitude: 43.629101
Longitude: 1.36382
Local Time 21:28 on 20 Apr 2024
UTC +2 hours (Europe/Paris)
Currency £1 equals EUR 1.16
METAR LFBO 201900Z AUTO 35007KT CAVOK 14/M01 Q1020 NOSIG
TAF TAF LFBO 201700Z 2018/2124 34012KT CAVOK TEMPO 2020/2110 VRB03KT TEMPO 2121/2124 VRB03KT
Weather As Of 20 Apr 2024 21:28
Description Clear sky
Wind 13 km/h from North (350°)
Cloud Cover 0%
Precipitation Rain: none, Snow: none
Sunrise 07:02
Sunset 20:43
NOTAM 32 active NOTAM
Rotations During the last 90 days there were
224 flights from LHR
225 flights to LHR
1 flights to AGP
Lounges La Croix du Sud Lounge , Main
Web Airport Website | Wikipedia
Codes IATA: TLS
ICAO: LFBO
Altitude 152 Meter / 499 Feet
Distance 880 KM / 547 Miles
from London.
Runways
RunwayLength (m)Surface
14L3000Asphalt
14R3500Asphalt
32L3500Asphalt
32R3000Asphalt
Radio
TypeDescriptionFrequency
AFISTOULOUSE INFO121.25
APPAPP121.1
APPTOULOUSE APP125.175
ATISATIS123.125
CLDCLNC DEL121.7
GNDGND121.9
TWRTWR118.1
Live ATC



Support Speedbird Online

© 2017-2024 Speedbird Online